sensor_id;sensor_type;location;lat;lon;timestamp;pressure;altitude;pressure_sealevel;temperature;humidity
77537;BME280;67783;51.656;16.106;2023-04-24T00:01:43;100603.15;;;16.20;61.80
77537;BME280;67783;51.656;16.106;2023-04-24T00:04:45;100588.53;;;16.13;62.13
77537;BME280;67783;51.656;16.106;2023-04-24T00:07:53;100591.82;;;16.07;63.70
77537;BME280;67783;51.656;16.106;2023-04-24T00:10:56;100583.88;;;16.05;61.70
77537;BME280;67783;51.656;16.106;2023-04-24T00:13:58;100582.78;;;15.98;62.12
77537;BME280;67783;51.656;16.106;2023-04-24T00:16:59;100578.37;;;15.97;61.40
77537;BME280;67783;51.656;16.106;2023-04-24T00:20:02;100573.40;;;15.93;61.84
77537;BME280;67783;51.656;16.106;2023-04-24T00:23:14;100570.84;;;15.91;63.45
77537;BME280;67783;51.656;16.106;2023-04-24T00:26:15;100566.29;;;15.92;61.46
77537;BME280;67783;51.656;16.106;2023-04-24T00:29:17;100566.59;;;15.89;62.15
77537;BME280;67783;51.656;16.106;2023-04-24T00:32:18;100564.03;;;15.87;61.51
77537;BME280;67783;51.656;16.106;2023-04-24T00:35:21;100554.68;;;15.82;61.84
77537;BME280;67783;51.656;16.106;2023-04-24T00:38:22;100559.37;;;15.80;61.59
77537;BME280;67783;51.656;16.106;2023-04-24T00:41:27;100559.95;;;15.74;61.76
77537;BME280;67783;51.656;16.106;2023-04-24T00:44:29;100555.01;;;15.69;63.56
77537;BME280;67783;51.656;16.106;2023-04-24T00:47:32;100544.34;;;15.67;61.66
77537;BME280;67783;51.656;16.106;2023-04-24T00:50:36;100542.38;;;15.60;62.33
77537;BME280;67783;51.656;16.106;2023-04-24T00:53:37;100535.57;;;15.56;61.75
77537;BME280;67783;51.656;16.106;2023-04-24T00:56:40;100534.41;;;15.49;62.27
77537;BME280;67783;51.656;16.106;2023-04-24T00:59:50;100536.99;;;15.41;64.12
77537;BME280;67783;51.656;16.106;2023-04-24T01:02:52;100530.34;;;15.35;62.19
77537;BME280;67783;51.656;16.106;2023-04-24T01:05:55;100537.47;;;15.27;62.90
77537;BME280;67783;51.656;16.106;2023-04-24T01:08:58;100543.99;;;15.24;62.22
77537;BME280;67783;51.656;16.106;2023-04-24T01:12:01;100525.98;;;15.15;62.85
77537;BME280;67783;51.656;16.106;2023-04-24T01:15:10;100527.54;;;15.08;64.62
77537;BME280;67783;51.656;16.106;2023-04-24T01:18:12;100524.15;;;15.06;62.52
77537;BME280;67783;51.656;16.106;2023-04-24T01:21:15;100517.63;;;14.99;63.46
77537;BME280;67783;51.656;16.106;2023-04-24T01:24:20;100516.23;;;14.95;62.83
77537;BME280;67783;51.656;16.106;2023-04-24T01:27:22;100509.25;;;14.83;63.46
77537;BME280;67783;51.656;16.106;2023-04-24T01:30:30;100511.68;;;14.76;65.80
77537;BME280;67783;51.656;16.106;2023-04-24T01:33:33;100511.68;;;14.76;63.08
77537;BME280;67783;51.656;16.106;2023-04-24T01:36:35;100503.88;;;14.73;63.92
77537;BME280;67783;51.656;16.106;2023-04-24T01:39:37;100503.88;;;14.73;63.17
77537;BME280;67783;51.656;16.106;2023-04-24T01:42:41;100497.62;;;14.72;63.54
77537;BME280;67783;51.656;16.106;2023-04-24T01:45:51;100498.62;;;14.71;65.93
77537;BME280;67783;51.656;16.106;2023-04-24T01:48:53;100493.77;;;14.75;63.24
77537;BME280;67783;51.656;16.106;2023-04-24T01:51:55;100490.81;;;14.78;63.74
77537;BME280;67783;51.656;16.106;2023-04-24T01:54:59;100499.17;;;14.85;62.90
77537;BME280;67783;51.656;16.106;2023-04-24T01:58:01;100495.33;;;14.87;63.23
77537;BME280;67783;51.656;16.106;2023-04-24T02:01:20;100483.84;;;14.85;65.65
77537;BME280;67783;51.656;16.106;2023-04-24T02:04:22;100480.98;;;14.87;63.13
77537;BME280;67783;51.656;16.106;2023-04-24T02:07:23;100476.43;;;14.87;64.03
77537;BME280;67783;51.656;16.106;2023-04-24T02:10:25;100479.71;;;14.91;63.25
77537;BME280;67783;51.656;16.106;2023-04-24T02:13:27;100477.84;;;14.91;63.81
77537;BME280;67783;51.656;16.106;2023-04-24T02:16:32;100472.74;;;14.88;65.96
77537;BME280;67783;51.656;16.106;2023-04-24T02:19:34;100464.77;;;14.87;64.23
77537;BME280;67783;51.656;16.106;2023-04-24T02:22:36;100463.37;;;14.83;64.88
77537;BME280;67783;51.656;16.106;2023-04-24T02:25:37;100461.39;;;14.85;64.28
77537;BME280;67783;51.656;16.106;2023-04-24T02:28:39;100457.41;;;14.79;65.00
77537;BME280;67783;51.656;16.106;2023-04-24T02:31:40;100451.62;;;14.74;64.39
77537;BME280;67783;51.656;16.106;2023-04-24T02:34:42;100446.91;;;14.66;64.94
77537;BME280;67783;51.656;16.106;2023-04-24T02:37:47;100445.80;;;14.59;67.86
77537;BME280;67783;51.656;16.106;2023-04-24T02:40:48;100437.58;;;14.61;64.79
77537;BME280;67783;51.656;16.106;2023-04-24T02:43:50;100435.99;;;14.58;66.05
77537;BME280;67783;51.656;16.106;2023-04-24T02:46:51;100439.25;;;14.62;64.68
77537;BME280;67783;51.656;16.106;2023-04-24T02:49:53;100442.67;;;14.64;65.32
77537;BME280;67783;51.656;16.106;2023-04-24T02:52:54;100455.44;;;14.71;64.55
77537;BME280;67783;51.656;16.106;2023-04-24T02:55:56;100454.32;;;14.74;65.01
77537;BME280;67783;51.656;16.106;2023-04-24T02:59:01;100446.91;;;14.76;67.27
77537;BME280;67783;51.656;16.106;2023-04-24T03:02:03;100433.13;;;14.79;64.78
77537;BME280;67783;51.656;16.106;2023-04-24T03:05:07;100433.98;;;14.79;65.43
77537;BME280;67783;51.656;16.106;2023-04-24T03:08:09;100440.96;;;14.82;64.65
77537;BME280;67783;51.656;16.106;2023-04-24T03:11:11;100433.55;;;14.84;64.86
77537;BME280;67783;51.656;16.106;2023-04-24T03:14:22;100423.05;;;14.81;67.61
77537;BME280;67783;51.656;16.106;2023-04-24T03:17:24;100428.74;;;14.78;64.96
77537;BME280;67783;51.656;16.106;2023-04-24T03:20:26;100426.48;;;14.73;65.80
77537;BME280;67783;51.656;16.106;2023-04-24T03:23:27;100426.18;;;14.76;64.81
77537;BME280;67783;51.656;16.106;2023-04-24T03:26:29;100421.08;;;14.73;65.18
77537;BME280;67783;51.656;16.106;2023-04-24T03:29:30;100424.47;;;14.75;64.70
77537;BME280;67783;51.656;16.106;2023-04-24T03:32:32;100416.55;;;14.74;65.48
77537;BME280;67783;51.656;16.106;2023-04-24T03:35:37;100414.54;;;14.76;66.80
77537;BME280;67783;51.656;16.106;2023-04-24T03:38:39;100416.66;;;14.82;64.58
77537;BME280;67783;51.656;16.106;2023-04-24T03:41:40;100409.12;;;14.86;65.12
77537;BME280;67783;51.656;16.106;2023-04-24T03:44:42;100408.68;;;14.90;64.38
77537;BME280;67783;51.656;16.106;2023-04-24T03:47:43;100421.90;;;14.84;65.08
77537;BME280;67783;51.656;16.106;2023-04-24T03:50:45;100415.09;;;14.79;64.80
77537;BME280;67783;51.656;16.106;2023-04-24T03:53:47;100415.96;;;14.70;65.15
77537;BME280;67783;51.656;16.106;2023-04-24T03:56:52;100419.38;;;14.72;66.75
77537;BME280;67783;51.656;16.106;2023-04-24T03:59:53;100412.39;;;14.79;64.83
77537;BME280;67783;51.656;16.106;2023-04-24T04:02:55;100419.92;;;14.86;65.27
77537;BME280;67783;51.656;16.106;2023-04-24T04:05:56;100412.23;;;14.91;64.73
77537;BME280;67783;51.656;16.106;2023-04-24T04:08:58;100404.89;;;14.73;65.30
77537;BME280;67783;51.656;16.106;2023-04-24T04:12:00;100426.30;;;14.85;65.13
77537;BME280;67783;51.656;16.106;2023-04-24T04:15:02;100427.89;;;14.77;65.60
77537;BME280;67783;51.656;16.106;2023-04-24T04:18:06;100441.95;;;14.71;68.07
77537;BME280;67783;51.656;16.106;2023-04-24T04:21:09;100456.42;;;14.70;65.78
77537;BME280;67783;51.656;16.106;2023-04-24T04:24:11;100453.34;;;14.65;66.50
77537;BME280;67783;51.656;16.106;2023-04-24T04:27:13;100452.31;;;14.66;65.52
77537;BME280;67783;51.656;16.106;2023-04-24T04:30:14;100446.36;;;14.72;65.67
77537;BME280;67783;51.656;16.106;2023-04-24T04:33:16;100436.55;;;14.81;65.08
77537;BME280;67783;51.656;16.106;2023-04-24T04:36:18;100436.11;;;14.86;65.23
77537;BME280;67783;51.656;16.106;2023-04-24T04:39:23;100437.52;;;14.90;66.41
77537;BME280;67783;51.656;16.106;2023-04-24T04:42:26;100440.22;;;14.90;65.00
77537;BME280;67783;51.656;16.106;2023-04-24T04:45:29;100446.61;;;14.79;66.05
77537;BME280;67783;51.656;16.106;2023-04-24T04:48:33;100447.64;;;14.78;65.40
77537;BME280;67783;51.656;16.106;2023-04-24T04:51:35;100436.98;;;14.76;65.61
77537;BME280;67783;51.656;16.106;2023-04-24T04:54:44;100454.58;;;14.81;67.06
77537;BME280;67783;51.656;16.106;2023-04-24T04:57:47;100430.46;;;14.69;65.25
77537;BME280;67783;51.656;16.106;2023-04-24T05:00:48;100450.30;;;14.88;65.71
77537;BME280;67783;51.656;16.106;2023-04-24T05:03:50;100449.13;;;15.00;64.87
77537;BME280;67783;51.656;16.106;2023-04-24T05:06:52;100452.36;;;15.13;64.96
77537;BME280;67783;51.656;16.106;2023-04-24T05:09:53;100445.34;;;15.30;64.43
77537;BME280;67783;51.656;16.106;2023-04-24T05:12:55;100459.23;;;15.44;64.28
77537;BME280;67783;51.656;16.106;2023-04-24T05:16:00;100462.00;;;15.62;64.44
77537;BME280;67783;51.656;16.106;2023-04-24T05:19:02;100459.67;;;15.77;63.29
77537;BME280;67783;51.656;16.106;2023-04-24T05:22:04;100457.74;;;15.87;62.72
77537;BME280;67783;51.656;16.106;2023-04-24T05:25:08;100455.13;;;15.95;62.43
77537;BME280;67783;51.656;16.106;2023-04-24T05:28:09;100458.09;;;16.01;62.00
77537;BME280;67783;51.656;16.106;2023-04-24T05:31:21;100462.02;;;16.07;61.40
77537;BME280;67783;51.656;16.106;2023-04-24T05:34:23;100472.56;;;16.10;61.45
77537;BME280;67783;51.656;16.106;2023-04-24T05:37:25;100469.55;;;16.13;60.91
77537;BME280;67783;51.656;16.106;2023-04-24T05:40:27;100470.94;;;16.17;60.92
77537;BME280;67783;51.656;16.106;2023-04-24T05:43:28;100473.31;;;16.20;60.82
77537;BME280;67783;51.656;16.106;2023-04-24T05:46:30;100475.57;;;16.25;60.67
77537;BME280;67783;51.656;16.106;2023-04-24T05:49:32;100481.52;;;16.28;60.43
77537;BME280;67783;51.656;16.106;2023-04-24T05:52:37;100482.23;;;16.30;59.50
77537;BME280;67783;51.656;16.106;2023-04-24T05:55:38;100488.04;;;16.35;60.18
77537;BME280;67783;51.656;16.106;2023-04-24T05:58:40;100461.37;;;16.23;59.73
77537;BME280;67783;51.656;16.106;2023-04-24T06:01:41;100478.61;;;16.39;59.81
77537;BME280;67783;51.656;16.106;2023-04-24T06:04:44;100478.29;;;16.42;59.67
77537;BME280;67783;51.656;16.106;2023-04-24T06:07:46;100478.36;;;16.50;59.50
77537;BME280;67783;51.656;16.106;2023-04-24T06:10:47;100480.76;;;16.53;59.34
77537;BME280;67783;51.656;16.106;2023-04-24T06:13:52;100487.34;;;16.51;58.57
77537;BME280;67783;51.656;16.106;2023-04-24T06:16:54;100487.34;;;16.51;59.31
77537;BME280;67783;51.656;16.106;2023-04-24T06:19:56;100486.34;;;16.52;59.13
77537;BME280;67783;51.656;16.106;2023-04-24T06:22:57;100487.59;;;16.57;59.28
77537;BME280;67783;51.656;16.106;2023-04-24T06:25:59;100487.83;;;16.64;59.24
77537;BME280;67783;51.656;16.106;2023-04-24T06:29:01;100490.75;;;16.71;59.30
77537;BME280;67783;51.656;16.106;2023-04-24T06:32:03;100489.11;;;16.78;59.18
77537;BME280;67783;51.656;16.106;2023-04-24T06:35:08;100484.80;;;16.85;58.99
77537;BME280;67783;51.656;16.106;2023-04-24T06:38:12;100482.45;;;16.90;59.15
77537;BME280;67783;51.656;16.106;2023-04-24T06:41:13;100489.24;;;16.94;59.03
77537;BME280;67783;51.656;16.106;2023-04-24T06:44:15;100493.34;;;16.98;59.03
77537;BME280;67783;51.656;16.106;2023-04-24T06:47:17;100494.57;;;17.03;58.91
77537;BME280;67783;51.656;16.106;2023-04-24T06:50:28;100493.63;;;17.13;58.22
77537;BME280;67783;51.656;16.106;2023-04-24T06:53:30;100494.35;;;17.23;58.53
77537;BME280;67783;51.656;16.106;2023-04-24T06:56:31;100499.86;;;17.31;58.17
77537;BME280;67783;51.656;16.106;2023-04-24T06:59:35;100493.30;;;17.41;58.15
77537;BME280;67783;51.656;16.106;2023-04-24T07:02:37;100500.80;;;17.47;57.57
77537;BME280;67783;51.656;16.106;2023-04-24T07:05:49;100492.34;;;17.50;56.69
77537;BME280;67783;51.656;16.106;2023-04-24T07:08:50;100503.08;;;17.60;57.64
77537;BME280;67783;51.656;16.106;2023-04-24T07:11:52;100500.21;;;17.62;57.08
77537;BME280;67783;51.656;16.106;2023-04-24T07:14:54;100504.30;;;17.66;57.31
77537;BME280;67783;51.656;16.106;2023-04-24T07:17:56;100509.25;;;17.70;57.13
77537;BME280;67783;51.656;16.106;2023-04-24T07:20:58;100509.28;;;17.78;57.17
77537;BME280;67783;51.656;16.106;2023-04-24T07:23:59;100506.75;;;17.85;57.04
77537;BME280;67783;51.656;16.106;2023-04-24T07:27:04;100501.02;;;17.88;55.92
77537;BME280;67783;51.656;16.106;2023-04-24T07:30:07;100500.17;;;17.87;56.73
77537;BME280;67783;51.656;16.106;2023-04-24T07:33:09;100505.41;;;17.89;56.35
77537;BME280;67783;51.656;16.106;2023-04-24T07:36:14;100497.50;;;17.95;56.21
77537;BME280;67783;51.656;16.106;2023-04-24T07:39:20;100507.88;;;18.08;56.22
77537;BME280;67783;51.656;16.106;2023-04-24T07:42:25;100510.30;;;18.27;55.40
77537;BME280;67783;51.656;16.106;2023-04-24T07:45:26;100513.90;;;18.44;55.75
77537;BME280;67783;51.656;16.106;2023-04-24T07:48:29;100508.36;;;18.54;54.80
77537;BME280;67783;51.656;16.106;2023-04-24T07:51:30;100513.63;;;18.63;54.75
77537;BME280;67783;51.656;16.106;2023-04-24T07:54:38;100514.66;;;18.70;54.40
77537;BME280;67783;51.656;16.106;2023-04-24T07:57:45;100518.39;;;18.77;52.61
77537;BME280;67783;51.656;16.106;2023-04-24T08:00:47;100526.38;;;18.87;54.09
77537;BME280;67783;51.656;16.106;2023-04-24T08:03:49;100521.61;;;18.97;53.50
77537;BME280;67783;51.656;16.106;2023-04-24T08:06:51;100516.36;;;19.04;53.13
77537;BME280;67783;51.656;16.106;2023-04-24T08:09:53;100516.87;;;19.07;53.25
77537;BME280;67783;51.656;16.106;2023-04-24T08:12:55;100501.23;;;19.01;53.56
77537;BME280;67783;51.656;16.106;2023-04-24T08:15:56;100521.43;;;19.23;53.21
77537;BME280;67783;51.656;16.106;2023-04-24T08:19:01;100530.77;;;19.36;51.34
77537;BME280;67783;51.656;16.106;2023-04-24T08:22:03;100526.18;;;19.53;52.68
77537;BME280;67783;51.656;16.106;2023-04-24T08:25:06;100514.76;;;19.66;51.80
77537;BME280;67783;51.656;16.106;2023-04-24T08:28:09;100518.77;;;19.86;52.29
77537;BME280;67783;51.656;16.106;2023-04-24T08:31:11;100522.80;;;19.98;51.63
77537;BME280;67783;51.656;16.106;2023-04-24T08:34:22;100517.14;;;20.08;49.68
77537;BME280;67783;51.656;16.106;2023-04-24T08:37:25;100523.36;;;20.24;51.21
77537;BME280;67783;51.656;16.106;2023-04-24T08:40:28;100527.74;;;20.34;50.44
77537;BME280;67783;51.656;16.106;2023-04-24T08:43:33;100525.65;;;20.44;51.02
77537;BME280;67783;51.656;16.106;2023-04-24T08:46:38;100527.95;;;20.55;50.85
77537;BME280;67783;51.656;16.106;2023-04-24T08:49:43;100522.70;;;20.53;48.13
77537;BME280;67783;51.656;16.106;2023-04-24T08:52:44;100523.36;;;20.55;50.20
77537;BME280;67783;51.656;16.106;2023-04-24T08:55:47;100529.28;;;20.59;49.03
77537;BME280;67783;51.656;16.106;2023-04-24T08:58:51;100524.15;;;20.64;49.98
77537;BME280;67783;51.656;16.106;2023-04-24T09:01:55;100523.66;;;20.60;49.14
77537;BME280;67783;51.656;16.106;2023-04-24T09:05:03;100521.31;;;20.57;46.65
77537;BME280;67783;51.656;16.106;2023-04-24T09:08:06;100532.21;;;20.57;49.41
77537;BME280;67783;51.656;16.106;2023-04-24T09:11:10;100525.59;;;20.52;48.95
77537;BME280;67783;51.656;16.106;2023-04-24T09:14:12;100522.92;;;20.44;49.65
77537;BME280;67783;51.656;16.106;2023-04-24T09:17:15;100519.98;;;20.53;49.50
77537;BME280;67783;51.656;16.106;2023-04-24T09:20:23;100519.38;;;20.66;47.64
77537;BME280;67783;51.656;16.106;2023-04-24T09:23:27;100514.16;;;20.79;49.24
77537;BME280;67783;51.656;16.106;2023-04-24T09:26:30;100509.69;;;20.86;48.68
77537;BME280;67783;51.656;16.106;2023-04-24T09:29:34;100520.52;;;20.94;48.91
77537;BME280;67783;51.656;16.106;2023-04-24T09:32:36;100516.57;;;20.97;48.27
77537;BME280;67783;51.656;16.106;2023-04-24T09:35:52;100516.49;;;21.05;45.25
77537;BME280;67783;51.656;16.106;2023-04-24T09:38:58;100521.73;;;21.14;47.97
77537;BME280;67783;51.656;16.106;2023-04-24T09:42:01;100521.23;;;21.11;47.41
77537;BME280;67783;51.656;16.106;2023-04-24T09:45:11;100518.02;;;21.07;44.66
77537;BME280;67783;51.656;16.106;2023-04-24T09:48:12;100523.90;;;20.96;46.39
77537;BME280;67783;51.656;16.106;2023-04-24T09:51:14;100520.70;;;20.93;46.19
77537;BME280;67783;51.656;16.106;2023-04-24T09:54:21;100520.83;;;20.99;46.95
77537;BME280;67783;51.656;16.106;2023-04-24T09:57:23;100530.33;;;21.03;46.52
77537;BME280;67783;51.656;16.106;2023-04-24T10:00:32;100519.91;;;21.07;43.95
77537;BME280;67783;51.656;16.106;2023-04-24T10:03:35;100514.76;;;21.12;46.27
77537;BME280;67783;51.656;16.106;2023-04-24T10:06:37;100517.06;;;21.23;45.56
77537;BME280;67783;51.656;16.106;2023-04-24T10:09:39;100510.76;;;21.37;46.08
77537;BME280;67783;51.656;16.106;2023-04-24T10:12:41;100512.09;;;21.41;45.50
77537;BME280;67783;51.656;16.106;2023-04-24T10:15:51;100500.91;;;21.51;43.67
77537;BME280;67783;51.656;16.106;2023-04-24T10:18:54;100512.50;;;21.53;45.15
77537;BME280;67783;51.656;16.106;2023-04-24T10:21:57;100512.21;;;21.48;44.40
77537;BME280;67783;51.656;16.106;2023-04-24T10:24:59;100515.58;;;21.50;45.07
77537;BME280;67783;51.656;16.106;2023-04-24T10:28:02;100515.87;;;21.55;43.97
77537;BME280;67783;51.656;16.106;2023-04-24T10:31:13;100520.95;;;21.58;40.88
77537;BME280;67783;51.656;16.106;2023-04-24T10:34:17;100522.48;;;21.60;42.83
77537;BME280;67783;51.656;16.106;2023-04-24T10:37:19;100525.67;;;21.64;41.90
77537;BME280;67783;51.656;16.106;2023-04-24T10:40:29;100521.24;;;21.63;42.00
77537;BME280;67783;51.656;16.106;2023-04-24T10:43:33;100523.41;;;21.53;41.69
77537;BME280;67783;51.656;16.106;2023-04-24T10:46:37;100525.93;;;21.40;40.35
77537;BME280;67783;51.656;16.106;2023-04-24T10:49:40;100536.52;;;21.20;42.44
77537;BME280;67783;51.656;16.106;2023-04-24T10:52:48;100531.35;;;21.02;42.41
77537;BME280;67783;51.656;16.106;2023-04-24T10:56:07;100532.28;;;20.95;40.08
77537;BME280;67783;51.656;16.106;2023-04-24T10:59:10;100530.41;;;20.95;43.01
77537;BME280;67783;51.656;16.106;2023-04-24T11:02:17;100533.47;;;20.92;42.66
77537;BME280;67783;51.656;16.106;2023-04-24T11:08:44;100534.63;;;20.98;43.26
77537;BME280;67783;51.656;16.106;2023-04-24T11:11:47;100536.51;;;20.97;42.59
77537;BME280;67783;51.656;16.106;2023-04-24T11:15:00;100538.74;;;20.94;40.01
77537;BME280;67783;51.656;16.106;2023-04-24T11:18:03;100536.02;;;20.94;42.63
77537;BME280;67783;51.656;16.106;2023-04-24T11:21:10;100528.39;;;20.89;42.31
77537;BME280;67783;51.656;16.106;2023-04-24T11:27:40;100537.83;;;21.01;42.84
77537;BME280;67783;51.656;16.106;2023-04-24T11:30:43;100542.91;;;21.04;42.76
77537;BME280;67783;51.656;16.106;2023-04-24T11:33:48;100534.55;;;21.06;41.11
77537;BME280;67783;51.656;16.106;2023-04-24T11:36:50;100541.34;;;21.10;43.01
77537;BME280;67783;51.656;16.106;2023-04-24T11:39:57;100541.34;;;21.10;42.91
77537;BME280;67783;51.656;16.106;2023-04-24T11:43:00;100534.69;;;21.12;43.33
77537;BME280;67783;51.656;16.106;2023-04-24T11:46:02;100537.29;;;21.06;43.46
77537;BME280;67783;51.656;16.106;2023-04-24T11:49:09;100532.69;;;21.06;42.38
77537;BME280;67783;51.656;16.106;2023-04-24T11:52:10;100531.66;;;21.07;43.54
77537;BME280;67783;51.656;16.106;2023-04-24T11:58:37;100539.60;;;20.94;42.79
77537;BME280;67783;51.656;16.106;2023-04-24T12:01:46;100544.74;;;20.89;43.90
77537;BME280;67783;51.656;16.106;2023-04-24T12:04:48;100544.81;;;20.81;43.87
77537;BME280;67783;51.656;16.106;2023-04-24T12:07:49;100538.40;;;20.74;44.18
77537;BME280;67783;51.656;16.106;2023-04-24T12:10:51;100544.38;;;20.69;44.18
77537;BME280;67783;51.656;16.106;2023-04-24T12:13:56;100538.15;;;20.61;43.17
77537;BME280;67783;51.656;16.106;2023-04-24T12:16:57;100539.53;;;20.57;44.20
77537;BME280;67783;51.656;16.106;2023-04-24T12:20:03;100538.36;;;20.51;43.85
77537;BME280;67783;51.656;16.106;2023-04-24T12:23:06;100538.91;;;20.47;44.27
77537;BME280;67783;51.656;16.106;2023-04-24T12:26:07;100537.43;;;20.36;44.27
77537;BME280;67783;51.656;16.106;2023-04-24T12:29:22;100543.06;;;20.26;43.54
77537;BME280;67783;51.656;16.106;2023-04-24T12:32:24;100540.05;;;20.13;44.25
77537;BME280;67783;51.656;16.106;2023-04-24T12:35:30;100544.55;;;19.98;44.25
77537;BME280;67783;51.656;16.106;2023-04-24T12:38:44;100539.52;;;19.87;43.81
77537;BME280;67783;51.656;16.106;2023-04-24T12:41:54;100549.73;;;19.77;44.87
77537;BME280;67783;51.656;16.106;2023-04-24T12:45:01;100546.54;;;19.65;44.99
77537;BME280;67783;51.656;16.106;2023-04-24T12:48:09;100546.56;;;19.57;44.98
77537;BME280;67783;51.656;16.106;2023-04-24T12:51:11;100543.01;;;19.49;45.36
77537;BME280;67783;51.656;16.106;2023-04-24T12:54:12;100550.30;;;19.40;45.51
77537;BME280;67783;51.656;16.106;2023-04-24T12:57:14;100543.50;;;19.36;45.70
77537;BME280;67783;51.656;16.106;2023-04-24T13:00:17;100536.36;;;19.35;45.83
77537;BME280;67783;51.656;16.106;2023-04-24T13:03:19;100538.07;;;19.36;45.90
77537;BME280;67783;51.656;16.106;2023-04-24T13:06:21;100536.55;;;19.33;45.89
77537;BME280;67783;51.656;16.106;2023-04-24T13:09:25;100534.66;;;19.34;45.84
77537;BME280;67783;51.656;16.106;2023-04-24T13:12:27;100533.64;;;19.35;46.01
77537;BME280;67783;51.656;16.106;2023-04-24T13:15:28;100536.86;;;19.38;46.03
77537;BME280;67783;51.656;16.106;2023-04-24T13:18:30;100536.38;;;19.43;46.08
77537;BME280;67783;51.656;16.106;2023-04-24T13:21:32;100529.92;;;19.44;46.13
77537;BME280;67783;51.656;16.106;2023-04-24T13:24:34;100522.46;;;19.46;46.17
77537;BME280;67783;51.656;16.106;2023-04-24T13:27:35;100528.55;;;19.48;46.13
77537;BME280;67783;51.656;16.106;2023-04-24T13:30:40;100520.76;;;19.45;45.77
77537;BME280;67783;51.656;16.106;2023-04-24T13:33:42;100528.23;;;19.43;46.10
77537;BME280;67783;51.656;16.106;2023-04-24T13:36:44;100522.26;;;19.40;46.25
77537;BME280;67783;51.656;16.106;2023-04-24T13:39:45;100531.42;;;19.38;46.46
77537;BME280;67783;51.656;16.106;2023-04-24T13:42:47;100523.62;;;19.35;46.70
77537;BME280;67783;51.656;16.106;2023-04-24T13:45:48;100519.55;;;19.31;46.91
77537;BME280;67783;51.656;16.106;2023-04-24T13:48:50;100522.78;;;19.27;47.34
77537;BME280;67783;51.656;16.106;2023-04-24T13:51:56;100518.91;;;19.21;47.75
77537;BME280;67783;51.656;16.106;2023-04-24T13:54:57;100525.01;;;19.15;47.55
77537;BME280;67783;51.656;16.106;2023-04-24T13:57:59;100530.62;;;19.06;47.98
77537;BME280;67783;51.656;16.106;2023-04-24T14:01:02;100535.20;;;18.97;48.14
77537;BME280;67783;51.656;16.106;2023-04-24T14:04:04;100535.87;;;18.67;49.53
77537;BME280;67783;51.656;16.106;2023-04-24T14:07:15;100541.89;;;18.44;50.47
77537;BME280;67783;51.656;16.106;2023-04-24T14:10:17;100547.59;;;18.17;49.71
77537;BME280;67783;51.656;16.106;2023-04-24T14:13:19;100553.75;;;17.93;50.36
77537;BME280;67783;51.656;16.106;2023-04-24T14:16:21;100555.23;;;17.80;50.10
77537;BME280;67783;51.656;16.106;2023-04-24T14:19:23;100558.52;;;17.66;50.81
77537;BME280;67783;51.656;16.106;2023-04-24T14:22:25;100570.41;;;17.47;51.03
77537;BME280;67783;51.656;16.106;2023-04-24T14:25:26;100565.03;;;17.29;51.51
77537;BME280;67783;51.656;16.106;2023-04-24T14:28:32;100564.27;;;17.19;54.42
77537;BME280;67783;51.656;16.106;2023-04-24T14:31:33;100561.81;;;17.08;52.22
77537;BME280;67783;51.656;16.106;2023-04-24T14:34:35;100547.50;;;16.98;53.56
77537;BME280;67783;51.656;16.106;2023-04-24T14:38:21;100552.55;;;16.93;52.72
77537;BME280;67783;51.656;16.106;2023-04-24T14:41:23;100538.95;;;16.85;54.64
77537;BME280;67783;51.656;16.106;2023-04-24T14:44:24;100544.04;;;16.88;53.23
77537;BME280;67783;51.656;16.106;2023-04-24T14:47:27;100532.69;;;16.84;53.98
77537;BME280;67783;51.656;16.106;2023-04-24T14:50:30;100533.21;;;16.88;53.49
77537;BME280;67783;51.656;16.106;2023-04-24T14:53:31;100527.80;;;16.88;53.95
77537;BME280;67783;51.656;16.106;2023-04-24T14:56:36;100525.94;;;16.88;57.05
77537;BME280;67783;51.656;16.106;2023-04-24T14:59:40;100520.06;;;16.93;54.15
77537;BME280;67783;51.656;16.106;2023-04-24T15:02:41;100516.70;;;16.99;54.85
77537;BME280;67783;51.656;16.106;2023-04-24T15:05:45;100495.43;;;17.04;54.46
77537;BME280;67783;51.656;16.106;2023-04-24T15:08:47;100504.87;;;17.00;54.81
77537;BME280;67783;51.656;16.106;2023-04-24T15:11:57;100492.01;;;17.02;57.64
77537;BME280;67783;51.656;16.106;2023-04-24T15:14:59;100490.86;;;17.04;54.76
77537;BME280;67783;51.656;16.106;2023-04-24T15:18:00;100495.43;;;17.04;55.79
77537;BME280;67783;51.656;16.106;2023-04-24T15:21:02;100493.42;;;17.06;54.96
77537;BME280;67783;51.656;16.106;2023-04-24T15:24:04;100489.16;;;17.03;55.59
77537;BME280;67783;51.656;16.106;2023-04-24T15:27:09;100499.99;;;17.03;55.29
77537;BME280;67783;51.656;16.106;2023-04-24T15:30:13;100504.26;;;17.06;55.72
77537;BME280;67783;51.656;16.106;2023-04-24T15:33:17;100508.11;;;17.03;59.52
77537;BME280;67783;51.656;16.106;2023-04-24T15:36:19;100511.68;;;17.04;55.90
77537;BME280;67783;51.656;16.106;2023-04-24T15:39:22;100515.09;;;17.06;56.69
77537;BME280;67783;51.656;16.106;2023-04-24T15:42:26;100513.59;;;17.12;55.81
77537;BME280;67783;51.656;16.106;2023-04-24T15:45:28;100508.17;;;17.12;56.58
77537;BME280;67783;51.656;16.106;2023-04-24T15:48:37;100507.80;;;17.06;59.21
77537;BME280;67783;51.656;16.106;2023-04-24T15:51:42;100513.06;;;17.08;56.23
77537;BME280;67783;51.656;16.106;2023-04-24T15:54:43;100517.48;;;17.09;56.96
77537;BME280;67783;51.656;16.106;2023-04-24T15:57:45;100512.59;;;17.13;56.15